Beaverton, Canada
Current Conditions -  °F | °C
As of 9:00 AM on Saturday 25 Oct 2014 (Local Time) from CYQA Reporting Station
Haze Haze  
Wind Chill: 45°   Ceiling: Unl
Heat Index: 48°   Visibility: 6mi
Dew Point: 45°   Wind: 8mph
Humidity: 87%   Direction: 180°S
Pressure: 29.67"   Gusts: NA
Location:  44.43°N, 79.15°W
Report Text: CYQA 251300Z AUTO 18007KT 6SM BR FEW075 SCT180 09/07 A2967 RMK PRESFR SLP055
Loading
Personal Weather Stations






























Interactive Weather Map New forecast layout! Learn more

10-Day Weather Forecast

Advertisements
Track Severe Weather on mobile